KHUA/HUA METAR and TAF weather

Enter ICAO airport designator
Station Type Date Time Source
KHUA METAR 2019/11/18 03:58 UTC NOAA

KHUA 180358Z AUTO 00000KT 10SM FEW200 06/02 A2990 RMK AO2 SLP127 T00550021 $


Station Type Date Time Source
KHUA Decoded METAR 2019/11/18 03:58 UTC NOAA

Station name not available
Nov 17, 2019 - 10:58 PM EST / 2019.11.18 0358 UTC
Wind: Calm:0
Visibility: 10 mile(s):0
Sky conditions: mostly clear
Temperature: 41.9 F (5.5 C)
Dew Point: 35.8 F (2.1 C)
Relative Humidity: 78%
Pressure (altimeter): 29.9 in. Hg (1012 hPa)
ob: KHUA 180358Z AUTO 00000KT 10SM FEW200 06/02 A2990 RMK AO2 SLP127 T00550021
cycle: 4

Station Type Date Time Source
KHUA TAF UTC NOAA

Error!

Example: see airport list